createdAt,value
2019-01-30T00:00:29.552Z,99815.70
2019-01-30T00:01:31.122Z,99810.84
2019-01-30T00:02:31.983Z,99809.45
2019-01-30T00:03:32.941Z,99812.42
2019-01-30T00:04:34.014Z,99809.30
2019-01-30T00:05:34.884Z,99806.30
2019-01-30T00:06:35.744Z,99808.79
2019-01-30T00:07:36.597Z,99802.75
2019-01-30T00:08:37.454Z,99807.42
2019-01-30T00:09:38.344Z,99813.11
2019-01-30T00:10:39.196Z,99813.61
2019-01-30T00:11:40.052Z,99814.95
2019-01-30T00:12:40.950Z,99818.23
2019-01-30T00:13:41.841Z,99815.98
2019-01-30T00:14:42.697Z,99815.06
2019-01-30T00:15:43.554Z,99811.11
2019-01-30T00:16:44.412Z,99809.45
2019-01-30T00:17:45.261Z,99811.03
2019-01-30T00:18:46.125Z,99814.95
2019-01-30T00:19:46.972Z,99814.44
2019-01-30T00:20:47.824Z,99815.66
2019-01-30T00:21:48.728Z,99813.19
2019-01-30T00:22:49.587Z,99818.15
2019-01-30T00:23:50.448Z,99819.27
2019-01-30T00:24:51.310Z,99817.83
2019-01-30T00:25:52.165Z,99819.91
2019-01-30T00:26:53.046Z,99816.41
2019-01-30T00:27:53.900Z,99812.05
2019-01-30T00:28:54.764Z,99812.96
2019-01-30T00:30:03.823Z,99807.49
2019-01-30T00:30:58.414Z,99808.84
2019-01-30T00:31:59.275Z,99814.31
2019-01-30T00:33:00.126Z,99808.23
2019-01-30T00:34:01.079Z,99815.69
2019-01-30T00:35:02.544Z,99818.06
2019-01-30T00:36:03.552Z,99812.47
2019-01-30T00:37:04.420Z,99811.33
2019-01-30T00:38:05.281Z,99809.99
2019-01-30T00:39:06.137Z,99813.61
2019-01-30T00:40:09.892Z,99805.53
2019-01-30T00:41:10.812Z,99812.58
2019-01-30T00:42:11.675Z,99811.42
2019-01-30T00:43:12.539Z,99807.81
2019-01-30T00:44:13.398Z,99811.43
2019-01-30T00:45:15.953Z,99812.97
2019-01-30T00:46:16.876Z,99808.65
2019-01-30T00:47:17.713Z,99813.90
2019-01-30T00:48:18.564Z,99808.23
2019-01-30T00:50:38.137Z,99806.76
2019-01-30T00:52:17.202Z,99805.31
2019-01-30T00:53:18.069Z,99805.13
2019-01-30T00:54:18.919Z,99801.80
2019-01-30T00:55:19.781Z,99806.56
2019-01-30T00:56:20.644Z,99805.22
2019-01-30T00:57:21.545Z,99803.87
2019-01-30T00:58:22.405Z,99803.66
2019-01-30T00:59:23.265Z,99803.23
2019-01-30T01:00:26.232Z,99803.97
2019-01-30T01:01:27.091Z,99806.56
2019-01-30T01:02:27.987Z,99809.53
2019-01-30T01:03:28.852Z,99801.88
2019-01-30T01:04:29.726Z,99802.20
2019-01-30T01:05:30.584Z,99797.84
2019-01-30T01:06:31.436Z,99801.05
2019-01-30T01:07:32.330Z,99802.30
2019-01-30T01:08:33.289Z,99797.10
2019-01-30T01:09:34.188Z,99801.78
2019-01-30T01:10:34.997Z,99799.42
2019-01-30T01:11:35.865Z,99801.14
2019-01-30T01:12:36.744Z,99790.61
2019-01-30T01:13:37.588Z,99802.89
2019-01-30T01:14:38.446Z,99797.19
2019-01-30T01:15:39.452Z,99796.67
2019-01-30T01:16:40.314Z,99798.14
2019-01-30T01:17:41.174Z,99795.28
2019-01-30T01:18:42.022Z,99793.88
2019-01-30T01:19:42.978Z,99797.30
2019-01-30T01:20:43.986Z,99795.84
2019-01-30T01:21:44.840Z,99799.98
2019-01-30T01:22:45.696Z,99797.91
2019-01-30T01:23:46.548Z,99794.89
2019-01-30T01:24:47.410Z,99795.27
2019-01-30T01:25:48.278Z,99798.91
2019-01-30T01:26:49.149Z,99789.59
2019-01-30T01:27:50.003Z,99789.81
2019-01-30T01:28:50.858Z,99795.17
2019-01-30T01:29:51.717Z,99794.64
2019-01-30T01:30:52.614Z,99796.72
2019-01-30T01:31:53.478Z,99795.05
2019-01-30T01:32:54.372Z,99794.03
2019-01-30T01:33:55.260Z,99789.58
2019-01-30T01:34:56.116Z,99792.96
2019-01-30T01:35:57.095Z,99796.10
2019-01-30T01:36:59.859Z,99793.18
2019-01-30T01:38:00.827Z,99795.33
2019-01-30T01:39:01.783Z,99794.38
2019-01-30T01:40:08.367Z,99794.22
2019-01-30T01:41:09.240Z,99798.04
2019-01-30T01:42:10.102Z,99795.25
2019-01-30T01:43:10.952Z,99799.06
2019-01-30T01:44:11.803Z,99800.99
2019-01-30T01:45:18.422Z,99796.35
2019-01-30T01:46:19.301Z,99797.29
2019-01-30T01:47:20.175Z,99799.89
2019-01-30T01:48:21.061Z,99795.84
2019-01-30T01:49:21.930Z,99794.05
2019-01-30T01:50:22.772Z,99792.60
2019-01-30T01:51:23.637Z,99799.84
2019-01-30T01:52:24.499Z,99799.50
2019-01-30T01:54:00.810Z,99795.47
2019-01-30T01:55:01.779Z,99800.03
2019-01-30T01:56:02.740Z,99799.25
2019-01-30T01:57:03.686Z,99802.23
2019-01-30T01:58:04.692Z,99791.92
2019-01-30T01:59:05.592Z,99794.69
2019-01-30T02:00:09.852Z,99793.83
2019-01-30T02:01:10.703Z,99796.76
2019-01-30T02:02:11.562Z,99792.63
2019-01-30T02:03:12.407Z,99791.39
2019-01-30T02:04:13.276Z,99791.50
2019-01-30T02:05:15.933Z,99791.39
2019-01-30T02:06:16.796Z,99787.77
2019-01-30T02:07:17.716Z,99789.43
2019-01-30T02:08:18.608Z,99787.85
2019-01-30T02:09:19.470Z,99782.30
2019-01-30T02:10:24.103Z,99778.98
2019-01-30T02:11:24.994Z,99781.33
2019-01-30T02:12:25.842Z,99777.58
2019-01-30T02:13:26.734Z,99778.43
2019-01-30T02:14:27.578Z,99776.66
2019-01-30T02:15:28.443Z,99783.29
2019-01-30T02:16:29.302Z,99773.70
2019-01-30T02:17:30.158Z,99777.41
2019-01-30T02:18:31.060Z,99776.25
2019-01-30T02:19:31.922Z,99776.60
2019-01-30T02:20:33.885Z,99769.78
2019-01-30T02:21:34.736Z,99773.48
2019-01-30T02:22:35.586Z,99771.42
2019-01-30T02:23:36.470Z,99769.67
2019-01-30T02:24:37.318Z,99771.48
2019-01-30T02:25:38.176Z,99771.07
2019-01-30T02:26:39.028Z,99772.15
2019-01-30T02:27:40.003Z,99772.73
2019-01-30T02:28:40.886Z,99770.98
2019-01-30T02:29:41.756Z,99773.08
2019-01-30T02:30:47.473Z,99783.62
2019-01-30T02:31:45.486Z,99782.07
2019-01-30T02:32:46.336Z,99780.91
2019-01-30T02:33:49.108Z,99784.10
2019-01-30T02:34:49.981Z,99794.32
2019-01-30T02:35:50.932Z,99787.91
2019-01-30T02:36:54.927Z,99790.88
2019-01-30T02:37:55.784Z,99787.54
2019-01-30T02:38:56.802Z,99785.62
2019-01-30T02:39:57.695Z,99784.56
2019-01-30T02:40:58.548Z,99783.12
2019-01-30T02:41:59.412Z,99776.52
2019-01-30T02:43:00.272Z,99787.82
2019-01-30T02:44:03.210Z,99796.81
2019-01-30T02:45:09.940Z,99792.46
2019-01-30T02:46:10.800Z,99792.04
2019-01-30T02:47:11.656Z,99784.86
2019-01-30T02:48:12.529Z,99791.92
2019-01-30T02:49:13.396Z,99792.35
2019-01-30T02:50:16.286Z,99795.91
2019-01-30T02:51:17.148Z,99788.98
2019-01-30T02:52:18.012Z,99796.89
2019-01-30T02:53:18.872Z,99792.14
2019-01-30T02:54:19.738Z,99793.66
2019-01-30T02:55:20.661Z,99799.60
2019-01-30T02:56:21.502Z,99793.30
2019-01-30T02:57:22.356Z,99798.55
2019-01-30T02:58:23.218Z,99803.64
2019-01-30T02:59:24.084Z,99801.23
2019-01-30T03:00:27.086Z,99806.36
2019-01-30T03:01:28.046Z,99808.48
2019-01-30T03:02:28.920Z,99810.02
2019-01-30T03:03:29.776Z,99809.35
2019-01-30T03:04:30.633Z,99807.55
2019-01-30T03:05:31.622Z,99808.92
2019-01-30T03:06:32.479Z,99810.16
2019-01-30T03:07:33.439Z,99806.61
2019-01-30T03:08:34.322Z,99804.78
2019-01-30T03:09:35.197Z,99807.84
2019-01-30T03:10:36.058Z,99817.08
2019-01-30T03:11:36.913Z,99814.91
2019-01-30T03:12:37.766Z,99818.06
2019-01-30T03:13:38.647Z,99819.09
2019-01-30T03:14:39.498Z,99816.13
2019-01-30T03:15:40.356Z,99816.97
2019-01-30T03:16:41.255Z,99820.78
2019-01-30T03:17:42.119Z,99813.31
2019-01-30T03:18:42.982Z,99817.23
2019-01-30T03:19:43.838Z,99819.77
2019-01-30T03:20:44.803Z,99815.82
2019-01-30T03:21:45.760Z,99813.57
2019-01-30T03:22:46.614Z,99812.41
2019-01-30T03:23:47.484Z,99819.48
2019-01-30T03:24:48.342Z,99824.41
2019-01-30T03:25:49.245Z,99827.81
2019-01-30T03:26:50.103Z,99823.47
2019-01-30T03:27:50.956Z,99821.84
2019-01-30T03:28:51.813Z,99815.42
2019-01-30T03:29:52.668Z,99813.28
2019-01-30T03:30:53.559Z,99812.52
2019-01-30T03:31:54.402Z,99810.23
2019-01-30T03:32:55.357Z,99821.94
2019-01-30T03:33:56.226Z,99818.37
2019-01-30T03:34:57.080Z,99815.57
2019-01-30T03:35:57.996Z,99821.90
2019-01-30T03:36:58.840Z,99810.78
2019-01-30T03:37:59.827Z,99812.13
2019-01-30T03:39:00.664Z,99813.39
2019-01-30T03:40:01.516Z,99822.92
2019-01-30T03:41:02.416Z,99814.26
2019-01-30T03:42:03.389Z,99810.16
2019-01-30T03:43:04.240Z,99807.47
2019-01-30T03:44:05.090Z,99808.89
2019-01-30T03:45:08.549Z,99802.87
2019-01-30T03:46:09.445Z,99806.06
2019-01-30T03:47:10.310Z,99808.17
2019-01-30T03:48:11.164Z,99807.62
2019-01-30T03:49:12.026Z,99804.36
2019-01-30T03:50:13.983Z,99796.42
2019-01-30T03:51:14.884Z,99794.72
2019-01-30T03:52:15.732Z,99796.93
2019-01-30T03:53:16.588Z,99803.75
2019-01-30T03:54:17.457Z,99803.89
2019-01-30T03:55:19.357Z,99810.25
2019-01-30T03:56:20.233Z,99799.31
2019-01-30T03:57:21.087Z,99798.78
2019-01-30T03:58:21.949Z,99801.57
2019-01-30T03:59:22.800Z,99798.45
2019-01-30T04:00:25.104Z,99805.05
2019-01-30T04:01:26.898Z,99805.88
2019-01-30T04:02:27.936Z,99806.39
2019-01-30T04:03:28.819Z,99806.03
2019-01-30T04:04:29.674Z,99803.81
2019-01-30T04:05:30.588Z,99812.81
2019-01-30T04:06:31.442Z,99809.44
2019-01-30T04:07:32.299Z,99815.89
2019-01-30T04:08:33.261Z,99814.69
2019-01-30T04:09:34.143Z,99811.80
2019-01-30T04:10:35.018Z,99817.30
2019-01-30T04:11:35.879Z,99815.92
2019-01-30T04:12:36.718Z,99816.07
2019-01-30T04:13:37.579Z,99818.47
2019-01-30T04:14:38.477Z,99810.92
2019-01-30T04:15:39.334Z,99815.86
2019-01-30T04:16:40.199Z,99809.08
2019-01-30T04:17:41.063Z,99809.58
2019-01-30T04:18:41.912Z,99803.34
2019-01-30T04:19:42.778Z,99799.33
2019-01-30T04:20:43.628Z,99802.84
2019-01-30T04:21:44.492Z,99795.95
2019-01-30T04:22:45.386Z,99800.30
2019-01-30T04:23:46.252Z,99808.71
2019-01-30T04:24:47.104Z,99804.36
2019-01-30T04:25:47.958Z,99804.38
2019-01-30T04:26:48.830Z,99798.88
2019-01-30T04:27:49.716Z,99802.72
2019-01-30T04:28:50.586Z,99808.84
2019-01-30T04:29:51.437Z,99803.98
2019-01-30T04:30:52.296Z,99799.50
2019-01-30T04:31:53.161Z,99797.53
2019-01-30T04:32:54.052Z,99805.30
2019-01-30T04:33:54.946Z,99807.22
2019-01-30T04:34:55.818Z,99814.43
2019-01-30T04:35:56.901Z,99813.55
2019-01-30T04:36:57.836Z,99814.61
2019-01-30T04:37:58.713Z,99811.39
2019-01-30T04:38:59.582Z,99811.39
2019-01-30T04:40:00.430Z,99807.11
2019-01-30T04:41:01.342Z,99806.39
2019-01-30T04:42:02.335Z,99812.91
2019-01-30T04:43:03.402Z,99813.45
2019-01-30T04:44:04.311Z,99810.81
2019-01-30T04:45:08.967Z,99807.42
2019-01-30T04:46:09.828Z,99809.42
2019-01-30T04:47:10.698Z,99810.00
2019-01-30T04:48:11.561Z,99811.45
2019-01-30T04:49:12.434Z,99808.71
2019-01-30T04:50:13.285Z,99814.44
2019-01-30T04:51:14.138Z,99810.29
2019-01-30T04:52:14.998Z,99809.89
2019-01-30T04:53:15.862Z,99814.38
2019-01-30T04:54:16.807Z,99806.99
2019-01-30T04:55:17.718Z,99807.93
2019-01-30T04:56:18.613Z,99809.19
2019-01-30T04:57:19.429Z,99812.91
2019-01-30T04:58:20.290Z,99803.04
2019-01-30T04:59:24.523Z,99804.02
2019-01-30T05:00:25.440Z,99809.97
2019-01-30T05:01:26.293Z,99807.85
2019-01-30T05:02:27.140Z,99804.12
2019-01-30T05:03:28.000Z,99798.59
2019-01-30T05:04:28.865Z,99802.23
2019-01-30T05:05:29.774Z,99799.74
2019-01-30T05:06:30.621Z,99798.55
2019-01-30T05:07:31.487Z,99799.65
2019-01-30T05:08:32.369Z,99802.61
2019-01-30T05:09:33.338Z,99797.91
2019-01-30T05:10:34.219Z,99798.72
2019-01-30T05:11:35.082Z,99799.47
2019-01-30T05:12:36.055Z,99799.47
2019-01-30T05:13:36.957Z,99796.35
2019-01-30T05:14:37.814Z,99797.80
2019-01-30T05:15:38.663Z,99800.99
2019-01-30T05:16:39.535Z,99802.77
2019-01-30T05:17:40.395Z,99802.59
2019-01-30T05:18:41.295Z,99805.99
2019-01-30T05:19:42.156Z,99804.65
2019-01-30T05:20:43.011Z,99798.97
2019-01-30T05:21:43.913Z,99800.52
2019-01-30T05:22:44.784Z,99797.53
2019-01-30T05:23:45.646Z,99800.31
2019-01-30T05:24:46.524Z,99793.42
2019-01-30T05:25:47.353Z,99790.83
2019-01-30T05:26:48.255Z,99794.02
2019-01-30T05:27:49.125Z,99784.94
2019-01-30T05:28:49.978Z,99786.63
2019-01-30T05:29:50.841Z,99788.30
2019-01-30T05:30:51.693Z,99789.15
2019-01-30T05:32:00.858Z,99790.52
2019-01-30T05:32:55.358Z,99795.02
2019-01-30T05:33:56.213Z,99788.15
2019-01-30T05:34:57.075Z,99793.34
2019-01-30T05:36:00.141Z,99792.55
2019-01-30T05:37:03.855Z,99786.23
2019-01-30T05:38:04.715Z,99788.91
2019-01-30T05:39:06.818Z,99787.40
2019-01-30T05:40:11.275Z,99783.39
2019-01-30T05:41:12.136Z,99786.14
2019-01-30T05:42:13.111Z,99782.35
2019-01-30T05:43:13.965Z,99786.89
2019-01-30T05:44:14.963Z,99788.53
2019-01-30T05:45:16.227Z,99784.12
2019-01-30T05:46:17.111Z,99784.59
2019-01-30T05:47:17.975Z,99789.88
2019-01-30T05:48:18.857Z,99787.79
2019-01-30T05:49:19.749Z,99790.59
2019-01-30T05:50:20.614Z,99784.72
2019-01-30T05:51:21.472Z,99786.36
2019-01-30T05:52:22.320Z,99789.05
2019-01-30T05:53:23.176Z,99779.78
2019-01-30T05:54:24.087Z,99790.32
2019-01-30T05:55:24.955Z,99790.53
2019-01-30T05:56:25.815Z,99780.95
2019-01-30T05:57:26.681Z,99784.14
2019-01-30T05:58:27.537Z,99787.33
2019-01-30T05:59:28.437Z,99789.91
2019-01-30T06:00:33.516Z,99791.36
2019-01-30T06:01:34.389Z,99787.34
2019-01-30T06:02:35.257Z,99787.26
2019-01-30T06:03:36.111Z,99795.31
2019-01-30T06:04:37.002Z,99793.91
2019-01-30T06:05:37.849Z,99791.94
2019-01-30T06:06:38.711Z,99787.14
2019-01-30T06:07:39.565Z,99782.48
2019-01-30T06:08:40.478Z,99787.56
2019-01-30T06:09:42.055Z,99785.24
2019-01-30T06:10:42.928Z,99786.91
2019-01-30T06:11:43.781Z,99789.09
2019-01-30T06:12:44.635Z,99782.11
2019-01-30T06:13:45.539Z,99779.09
2019-01-30T06:14:46.400Z,99781.05
2019-01-30T06:15:47.255Z,99785.90
2019-01-30T06:16:48.122Z,99783.52
2019-01-30T06:17:48.971Z,99777.59
2019-01-30T06:18:49.871Z,99778.90
2019-01-30T06:19:50.735Z,99778.66
2019-01-30T06:20:51.583Z,99778.66
2019-01-30T06:21:52.442Z,99789.06
2019-01-30T06:22:54.206Z,99785.41
2019-01-30T06:23:55.108Z,99794.42
2019-01-30T06:24:55.973Z,99787.26
2019-01-30T06:25:56.837Z,99790.23
2019-01-30T06:26:57.698Z,99791.89
2019-01-30T06:27:58.562Z,99787.86
2019-01-30T06:28:59.461Z,99798.00
2019-01-30T06:30:00.368Z,99793.28
2019-01-30T06:31:01.216Z,99791.81
2019-01-30T06:32:02.073Z,99790.59
2019-01-30T06:33:03.061Z,99790.59
2019-01-30T06:34:03.999Z,99795.31
2019-01-30T06:35:04.844Z,99789.53
2019-01-30T06:36:05.694Z,99793.01
2019-01-30T06:37:06.551Z,99794.54
2019-01-30T06:38:07.411Z,99791.89
2019-01-30T06:39:08.433Z,99791.28
2019-01-30T06:40:13.105Z,99788.52
2019-01-30T06:41:13.981Z,99785.71
2019-01-30T06:42:14.836Z,99785.08
2019-01-30T06:43:15.692Z,99780.12
2019-01-30T06:44:16.589Z,99785.50
2019-01-30T06:45:17.457Z,99782.03
2019-01-30T06:46:18.317Z,99778.90
2019-01-30T06:47:19.176Z,99775.08
2019-01-30T06:48:20.057Z,99771.87
2019-01-30T06:49:21.005Z,99777.27
2019-01-30T06:50:21.871Z,99778.09
2019-01-30T06:51:22.793Z,99774.90
2019-01-30T06:52:23.642Z,99775.27
2019-01-30T06:53:26.415Z,99783.67
2019-01-30T06:54:27.335Z,99776.17
2019-01-30T06:55:28.206Z,99772.13
2019-01-30T06:56:29.479Z,99776.55
2019-01-30T06:57:30.348Z,99778.25
2019-01-30T06:58:31.197Z,99774.14
2019-01-30T06:59:32.054Z,99776.00
2019-01-30T07:00:33.041Z,99777.85
2019-01-30T07:01:33.936Z,99775.82
2019-01-30T07:02:34.835Z,99774.58
2019-01-30T07:03:35.714Z,99772.82
2019-01-30T07:04:36.569Z,99776.16
2019-01-30T07:05:37.426Z,99773.16
2019-01-30T07:06:38.324Z,99768.61
2019-01-30T07:07:39.187Z,99772.73
2019-01-30T07:08:40.061Z,99765.41
2019-01-30T07:09:40.918Z,99767.13
2019-01-30T07:10:41.816Z,99772.28
2019-01-30T07:11:42.691Z,99776.51
2019-01-30T07:12:43.561Z,99767.13
2019-01-30T07:13:44.431Z,99774.06
2019-01-30T07:14:45.277Z,99769.40
2019-01-30T07:15:46.172Z,99765.09
2019-01-30T07:16:47.056Z,99766.71
2019-01-30T07:17:47.917Z,99761.79
2019-01-30T07:18:48.797Z,99766.94
2019-01-30T07:19:49.653Z,99763.14
2019-01-30T07:20:50.516Z,99765.19
2019-01-30T07:21:51.415Z,99764.77
2019-01-30T07:22:52.276Z,99759.81
2019-01-30T07:23:53.137Z,99751.55
2019-01-30T07:24:54.028Z,99749.70
2019-01-30T07:25:54.876Z,99751.23
2019-01-30T07:26:55.779Z,99751.14
2019-01-30T07:27:56.643Z,99756.51
2019-01-30T07:28:57.502Z,99756.51
2019-01-30T07:30:04.508Z,99755.39
2019-01-30T07:31:05.378Z,99753.21
2019-01-30T07:32:06.275Z,99761.57
2019-01-30T07:33:07.139Z,99760.21
2019-01-30T07:34:08.007Z,99762.66
2019-01-30T07:35:08.859Z,99763.31
2019-01-30T07:36:09.721Z,99762.48
2019-01-30T07:37:10.621Z,99761.70
2019-01-30T07:38:11.496Z,99758.59
2019-01-30T07:39:12.391Z,99760.25
2019-01-30T07:40:14.457Z,99760.95
2019-01-30T07:41:15.319Z,99765.41
2019-01-30T07:42:16.311Z,99768.51
2019-01-30T07:43:17.167Z,99769.23
2019-01-30T07:44:18.023Z,99776.80
2019-01-30T07:45:22.337Z,99771.09
2019-01-30T07:46:23.427Z,99767.89
2019-01-30T07:47:24.663Z,99766.66
2019-01-30T07:48:27.327Z,99768.70
2019-01-30T07:49:28.308Z,99770.88
2019-01-30T07:50:29.171Z,99771.52
2019-01-30T07:51:30.025Z,99777.28
2019-01-30T07:52:32.717Z,99777.08
2019-01-30T07:53:33.789Z,99776.61
2019-01-30T07:54:34.657Z,99782.37
2019-01-30T07:55:37.652Z,99778.02
2019-01-30T07:56:38.898Z,99781.63
2019-01-30T07:57:40.437Z,99776.87
2019-01-30T07:58:41.881Z,99783.60
2019-01-30T07:59:50.541Z,99781.02
2019-01-30T08:00:51.779Z,99780.73
2019-01-30T08:01:52.679Z,99773.89
2019-01-30T08:02:53.837Z,99774.81
2019-01-30T08:03:54.937Z,99776.73
2019-01-30T08:04:55.830Z,99776.04
2019-01-30T08:05:56.654Z,99777.39
2019-01-30T08:06:57.506Z,99775.33
2019-01-30T08:07:58.585Z,99777.22
2019-01-30T08:08:59.493Z,99778.23
2019-01-30T08:10:00.418Z,99776.27
2019-01-30T08:11:01.317Z,99779.17
2019-01-30T08:12:02.169Z,99781.44
2019-01-30T08:13:03.432Z,99777.73
2019-01-30T08:14:04.381Z,99779.77
2019-01-30T08:15:09.003Z,99776.06
2019-01-30T08:16:09.969Z,99776.25
2019-01-30T08:17:10.848Z,99774.41
2019-01-30T08:18:11.687Z,99774.59
2019-01-30T08:19:12.563Z,99773.64
2019-01-30T08:20:15.607Z,99773.09
2019-01-30T08:21:16.544Z,99775.68
2019-01-30T08:22:17.394Z,99767.18
2019-01-30T08:23:18.745Z,99766.42
2019-01-30T08:24:19.784Z,99769.88
2019-01-30T08:25:21.891Z,99775.38
2019-01-30T08:26:25.556Z,99769.09
2019-01-30T08:27:25.741Z,99769.08
2019-01-30T08:28:26.961Z,99765.89
2019-01-30T08:29:27.944Z,99766.72
2019-01-30T08:30:28.934Z,99763.22
2019-01-30T08:31:30.311Z,99771.67
2019-01-30T08:32:31.359Z,99766.00
2019-01-30T08:33:32.295Z,99767.22
2019-01-30T08:34:33.276Z,99766.53
2019-01-30T08:35:34.143Z,99765.88
2019-01-30T08:36:35.031Z,99776.45
2019-01-30T08:37:38.404Z,99769.47
2019-01-30T08:38:38.671Z,99774.20
2019-01-30T08:39:39.532Z,99770.66
2019-01-30T08:40:40.415Z,99772.83
2019-01-30T08:41:41.314Z,99771.47
2019-01-30T08:42:42.169Z,99765.75
2019-01-30T08:43:43.030Z,99773.06
2019-01-30T08:44:47.013Z,99769.83
2019-01-30T08:45:46.661Z,99769.81
2019-01-30T08:46:47.623Z,99767.75
2019-01-30T08:47:48.491Z,99768.86
2019-01-30T08:48:49.337Z,99765.02
2019-01-30T08:49:50.209Z,99767.16
2019-01-30T08:50:51.075Z,99767.83
2019-01-30T08:51:51.968Z,99756.59
2019-01-30T08:52:52.831Z,99766.40
2019-01-30T08:53:53.683Z,99765.03
2019-01-30T08:54:54.655Z,99763.88
2019-01-30T08:55:55.633Z,99761.71
2019-01-30T08:56:56.586Z,99766.31
2019-01-30T08:57:57.498Z,99767.09
2019-01-30T08:58:58.458Z,99776.29
2019-01-30T08:59:59.316Z,99771.22
2019-01-30T09:01:00.230Z,99773.05
2019-01-30T09:02:01.111Z,99768.66
2019-01-30T09:03:01.967Z,99772.31
2019-01-30T09:04:02.943Z,99768.11
2019-01-30T09:05:06.583Z,99776.38
2019-01-30T09:06:07.461Z,99778.64
2019-01-30T09:07:08.429Z,99766.47
2019-01-30T09:08:09.302Z,99774.57
2019-01-30T09:09:10.209Z,99773.25
2019-01-30T09:10:13.986Z,99775.34
2019-01-30T09:11:14.899Z,99779.01
2019-01-30T09:12:15.730Z,99769.76
2019-01-30T09:13:16.580Z,99778.41
2019-01-30T09:14:17.433Z,99778.75
2019-01-30T09:15:20.439Z,99776.97
2019-01-30T09:16:21.305Z,99780.27
2019-01-30T09:17:22.152Z,99776.08
2019-01-30T09:18:23.017Z,99778.48
2019-01-30T09:19:23.880Z,99781.70
2019-01-30T09:20:24.895Z,99781.66
2019-01-30T09:21:25.763Z,99773.73
2019-01-30T09:22:26.617Z,99777.54
2019-01-30T09:23:27.475Z,99774.66
2019-01-30T09:24:28.343Z,99775.84
2019-01-30T09:25:29.423Z,99774.21
2019-01-30T09:26:30.284Z,99773.61
2019-01-30T09:27:31.159Z,99773.53
2019-01-30T09:28:32.015Z,99775.43
2019-01-30T09:29:32.871Z,99775.80
2019-01-30T09:30:35.859Z,99770.20
2019-01-30T09:31:36.733Z,99772.13
2019-01-30T09:32:37.607Z,99775.28
2019-01-30T09:33:38.453Z,99779.64
2019-01-30T09:34:39.329Z,99774.22
2019-01-30T09:35:40.239Z,99771.72
2019-01-30T09:36:41.061Z,99769.10
2019-01-30T09:37:41.920Z,99773.45
2019-01-30T09:38:42.793Z,99773.14
2019-01-30T09:39:43.657Z,99776.51
2019-01-30T09:40:44.643Z,99772.87
2019-01-30T09:41:45.472Z,99767.44
2019-01-30T09:42:46.394Z,99767.44
2019-01-30T09:43:47.297Z,99770.53
2019-01-30T09:44:48.159Z,99775.03
2019-01-30T09:45:49.065Z,99774.48
2019-01-30T09:46:49.894Z,99775.53
2019-01-30T09:47:50.762Z,99773.09
2019-01-30T09:48:51.623Z,99773.05
2019-01-30T09:49:52.665Z,99769.10
2019-01-30T09:50:53.544Z,99776.44
2019-01-30T09:51:54.373Z,99775.75
2019-01-30T09:52:55.237Z,99773.84
2019-01-30T09:53:57.635Z,99774.16
2019-01-30T09:54:58.671Z,99774.98
2019-01-30T09:55:59.668Z,99773.02
2019-01-30T09:57:00.506Z,99771.72
2019-01-30T09:58:01.405Z,99769.29
2019-01-30T09:59:02.274Z,99769.59
2019-01-30T10:00:09.962Z,99770.13
2019-01-30T10:01:10.828Z,99772.97
2019-01-30T10:02:11.687Z,99770.03
2019-01-30T10:03:12.596Z,99769.10
2019-01-30T10:04:13.461Z,99766.94
2019-01-30T10:05:14.322Z,99766.14
2019-01-30T10:06:15.192Z,99771.09
2019-01-30T10:07:16.051Z,99771.59
2019-01-30T10:08:16.958Z,99767.83
2019-01-30T10:09:17.804Z,99762.70
2019-01-30T10:10:24.860Z,99765.31
2019-01-30T10:11:25.717Z,99762.13
2019-01-30T10:12:26.594Z,99765.31
2019-01-30T10:13:27.497Z,99763.58
2019-01-30T10:14:28.361Z,99757.69
2019-01-30T10:15:36.151Z,99759.45
2019-01-30T10:16:37.058Z,99762.28
2019-01-30T10:17:38.030Z,99763.50
2019-01-30T10:18:38.924Z,99765.23
2019-01-30T10:19:41.808Z,99757.66
2019-01-30T10:20:44.759Z,99764.41
2019-01-30T10:21:45.720Z,99756.20
2019-01-30T10:22:46.676Z,99757.82
2019-01-30T10:23:47.580Z,99759.90
2019-01-30T10:24:50.475Z,99760.31
2019-01-30T10:25:51.296Z,99752.53
2019-01-30T10:26:52.155Z,99754.89
2019-01-30T10:27:53.004Z,99754.58
2019-01-30T10:28:53.867Z,99752.81
2019-01-30T10:29:54.722Z,99757.97
2019-01-30T10:30:55.644Z,99753.71
2019-01-30T10:31:56.500Z,99753.55
2019-01-30T10:32:57.359Z,99758.62
2019-01-30T10:33:58.221Z,99759.27
2019-01-30T10:34:59.078Z,99760.81
2019-01-30T10:35:59.987Z,99760.62
2019-01-30T10:37:03.565Z,99761.55
2019-01-30T10:38:03.815Z,99750.41
2019-01-30T10:39:07.092Z,99757.02
2019-01-30T10:40:14.622Z,99751.27
2019-01-30T10:41:15.532Z,99751.84
2019-01-30T10:42:16.400Z,99742.95
2019-01-30T10:43:17.257Z,99742.31
2019-01-30T10:44:18.130Z,99747.66
2019-01-30T10:45:18.978Z,99744.89
2019-01-30T10:46:19.881Z,99744.29
2019-01-30T10:47:20.754Z,99744.72
2019-01-30T10:48:21.711Z,99742.05
2019-01-30T10:49:22.576Z,99742.03
2019-01-30T10:50:26.733Z,99739.75
2019-01-30T10:51:27.608Z,99739.62
2019-01-30T10:52:28.464Z,99732.45
2019-01-30T10:53:29.370Z,99729.76
2019-01-30T10:54:30.232Z,99735.64
2019-01-30T10:55:33.520Z,99735.31
2019-01-30T10:56:34.396Z,99730.94
2019-01-30T10:57:35.262Z,99728.18
2019-01-30T10:58:36.143Z,99726.99
2019-01-30T10:59:37.002Z,99728.42
2019-01-30T11:00:44.162Z,99721.50
2019-01-30T11:01:45.054Z,99718.36
2019-01-30T11:02:46.533Z,99719.66
2019-01-30T11:03:56.803Z,99717.25
2019-01-30T11:04:50.356Z,99718.06
2019-01-30T11:05:51.218Z,99716.94
2019-01-30T11:06:52.066Z,99711.44
2019-01-30T11:07:52.918Z,99707.19
2019-01-30T11:08:53.778Z,99707.78
2019-01-30T11:09:54.668Z,99698.16
2019-01-30T11:10:55.663Z,99700.52
2019-01-30T11:11:58.456Z,99702.58
2019-01-30T11:12:59.286Z,99700.72
2019-01-30T11:14:00.140Z,99693.41
2019-01-30T11:15:02.838Z,99696.67
2019-01-30T11:16:03.933Z,99701.42
2019-01-30T11:17:04.794Z,99698.80
2019-01-30T11:18:07.466Z,99699.06
2019-01-30T11:19:08.440Z,99694.75
2019-01-30T11:20:12.340Z,99691.27
2019-01-30T11:21:13.196Z,99693.69
2019-01-30T11:22:14.053Z,99703.22
2019-01-30T11:23:14.917Z,99699.55
2019-01-30T11:24:24.759Z,99699.80
2019-01-30T11:29:03.202Z,99702.20
2019-01-30T11:30:07.516Z,99700.90
2019-01-30T11:31:08.512Z,99696.91
2019-01-30T11:32:09.397Z,99698.63
2019-01-30T11:33:10.235Z,99698.29
2019-01-30T11:34:11.090Z,99699.16
2019-01-30T11:35:11.954Z,99693.53
2019-01-30T11:36:12.854Z,99691.03
2019-01-30T11:37:13.731Z,99694.23
2019-01-30T11:38:16.112Z,99689.98
2019-01-30T11:39:17.003Z,99687.87
2019-01-30T11:40:21.448Z,99686.59
2019-01-30T11:41:22.354Z,99686.21
2019-01-30T11:42:24.142Z,99691.80
2019-01-30T11:43:25.018Z,99683.52
2019-01-30T11:44:27.882Z,99688.50
2019-01-30T11:45:31.789Z,99682.75
2019-01-30T11:46:32.686Z,99686.52
2019-01-30T11:47:34.077Z,99678.88
2019-01-30T11:48:34.938Z,99682.80
2019-01-30T11:49:35.911Z,99683.83
2019-01-30T11:50:37.860Z,99686.20
2019-01-30T11:51:38.779Z,99685.75
2019-01-30T11:52:39.670Z,99677.66
2019-01-30T11:53:40.524Z,99679.40
2019-01-30T11:54:41.421Z,99680.21
2019-01-30T11:55:42.334Z,99686.13
2019-01-30T11:56:43.241Z,99686.41
2019-01-30T11:57:44.110Z,99684.59
2019-01-30T11:58:45.011Z,99676.43
2019-01-30T11:59:45.881Z,99677.78
2019-01-30T12:00:48.676Z,99679.61
2019-01-30T12:01:49.645Z,99678.16
2019-01-30T12:02:50.524Z,99679.61
2019-01-30T12:03:51.376Z,99678.61
2019-01-30T12:04:52.266Z,99679.23